Time;durP1;ratioP1;P1;durP2;ratioP2;P2;SDS_P1;SDS_P2;PMS_P1;PMS_P2;Temp;Humidity;BMP_temperature;BMP_pressure;BME280_temperature;BME280_humidity;BME280_pressure;Samples;Min_cycle;Max_cycle;Signal;HPM_P1;HPM_P2
2023/03/19 00:00:34;;;;;;;21.92;10.20;;;;;;;;;;4937312;28;20453;-63
2023/03/19 00:03:01;;;;;;;21.00;10.90;;;;;;;;;;4937651;28;20377;-63
2023/03/19 00:05:29;;;;;;;23.10;11.23;;;;;;;;;;4920278;28;20046;-63
2023/03/19 00:07:56;;;;;;;19.40;10.77;;;;;;;;;;4944745;28;20035;-64
2023/03/19 00:10:24;;;;;;;20.92;11.48;;;;;;;;;;4933524;28;20836;-63
2023/03/19 00:12:51;;;;;;;22.02;11.40;;;;;;;;;;4938527;28;20442;-65
2023/03/19 00:15:19;;;;;;;23.17;11.35;;;;;;;;;;4940321;28;20318;-65
2023/03/19 00:17:47;;;;;;;22.63;12.05;;;;;;;;;;4939240;28;20451;-64
2023/03/19 00:20:14;;;;;;;24.50;11.60;;;;;;;;;;4938491;28;20492;-64
2023/03/19 00:22:41;;;;;;;20.60;10.98;;;;;;;;;;4917247;28;20134;-65
2023/03/19 00:25:08;;;;;;;;;;;;;;;;;;4938254;28;20772;-65
2023/03/19 00:27:36;;;;;;;22.30;11.90;;;;;;;;;;4938890;28;19914;-65
2023/03/19 00:30:03;;;;;;;21.40;11.55;;;;;;;;;;4920672;28;20475;-63
2023/03/19 00:32:32;;;;;;;22.75;11.38;;;;;;;;;;4935035;28;20402;-64
2023/03/19 00:35:00;;;;;;;20.52;11.70;;;;;;;;;;4943725;28;20041;-64
2023/03/19 00:37:27;;;;;;;21.80;11.35;;;;;;;;;;4935054;28;20435;-63
2023/03/19 00:39:54;;;;;;;22.77;11.30;;;;;;;;;;4939752;28;20030;-65
2023/03/19 00:42:22;;;;;;;22.60;10.90;;;;;;;;;;4942669;28;20039;-63
2023/03/19 00:44:49;;;;;;;22.50;11.63;;;;;;;;;;4921012;28;20468;-63
2023/03/19 00:47:17;;;;;;;21.38;10.65;;;;;;;;;;4922423;28;20065;-64
2023/03/19 00:49:43;;;;;;;18.88;9.75;;;;;;;;;;4931788;28;20958;-64
2023/03/19 00:52:10;;;;;;;;;;;;;;;;;;4938110;28;20034;-63
2023/03/19 00:54:37;;;;;;;;;;;;;;;;;;4934894;28;20101;-64
2023/03/19 00:57:05;;;;;;;20.80;8.18;;;;;;;;;;4940516;28;19985;-63
2023/03/19 00:59:32;;;;;;;19.20;8.65;;;;;;;;;;4932196;28;20370;-63
2023/03/19 01:02:00;;;;;;;20.27;8.40;;;;;;;;;;4926494;28;20076;-66
2023/03/19 01:04:26;;;;;;;20.08;8.65;;;;;;;;;;4934337;28;20110;-65
2023/03/19 01:06:53;;;;;;;19.05;9.32;;;;;;;;;;4936453;28;20470;-68
2023/03/19 01:09:21;;;;;;;19.20;8.45;;;;;;;;;;4937609;28;20031;-68
2023/03/19 01:11:49;;;;;;;19.52;8.13;;;;;;;;;;4939533;28;20690;-68
2023/03/19 01:14:18;;;;;;;19.63;7.82;;;;;;;;;;4943589;28;20041;-68
2023/03/19 01:16:45;;;;;;;22.08;8.43;;;;;;;;;;4941210;28;20034;-69
2023/03/19 01:19:13;;;;;;;20.33;9.07;;;;;;;;;;4937428;28;20039;-69
2023/03/19 01:21:40;;;;;;;18.75;9.07;;;;;;;;;;4936355;28;20381;-67
2023/03/19 01:24:06;;;;;;;18.80;8.98;;;;;;;;;;4944797;28;20498;-65
2023/03/19 01:26:33;;;;;;;;;;;;;;;;;;4914959;28;20051;-69
2023/03/19 01:29:00;;;;;;;;;;;;;;;;;;4938703;28;20016;-69
2023/03/19 01:31:27;;;;;;;20.42;8.23;;;;;;;;;;4920340;28;20332;-68
2023/03/19 01:33:55;;;;;;;17.55;8.05;;;;;;;;;;4931309;28;20042;-68
2023/03/19 01:36:23;;;;;;;17.13;7.72;;;;;;;;;;4933457;28;20508;-68
2023/03/19 01:38:50;;;;;;;17.15;7.50;;;;;;;;;;4917398;28;20038;-68
2023/03/19 01:41:17;;;;;;;19.92;8.60;;;;;;;;;;4935191;28;20630;-68
2023/03/19 01:43:45;;;;;;;22.10;8.35;;;;;;;;;;4930033;28;20046;-68
2023/03/19 01:46:20;;;;;;;19.45;7.45;;;;;;;;;;4934923;28;20844;-68
2023/03/19 01:48:49;;;;;;;21.05;7.75;;;;;;;;;;4935335;28;20162;-68
2023/03/19 01:51:23;;;;;;;20.25;6.82;;;;;;;;;;4921745;28;20042;-68
2023/03/19 01:53:53;;;;;;;20.80;7.10;;;;;;;;;;4939105;28;20184;-68
2023/03/19 01:56:26;;;;;;;17.33;6.93;;;;;;;;;;4939673;28;20437;-67
2023/03/19 01:58:56;;;;;;;17.88;7.07;;;;;;;;;;4939962;28;20105;-67
2023/03/19 02:01:25;;;;;;;21.58;6.50;;;;;;;;;;4937587;28;20497;-70
2023/03/19 02:03:53;;;;;;;15.43;6.10;;;;;;;;;;4937023;28;20293;-68
2023/03/19 02:06:21;;;;;;;17.92;6.60;;;;;;;;;;4938188;28;20463;-69
2023/03/19 02:08:49;;;;;;;17.73;6.50;;;;;;;;;;4940409;28;20054;-68
2023/03/19 02:11:17;;;;;;;16.90;6.25;;;;;;;;;;4938039;28;20467;-67
2023/03/19 02:13:45;;;;;;;19.05;6.13;;;;;;;;;;4933925;28;20091;-69
2023/03/19 02:16:12;;;;;;;20.23;6.25;;;;;;;;;;4934776;28;20407;-68
2023/03/19 02:18:40;;;;;;;21.48;7.53;;;;;;;;;;4936727;28;20409;-69
2023/03/19 02:21:10;;;;;;;18.60;7.07;;;;;;;;;;4939521;28;20552;-69
2023/03/19 02:23:55;;;;;;;19.95;6.75;;;;;;;;;;4930495;28;20125;-69
2023/03/19 02:26:24;;;;;;;17.65;6.40;;;;;;;;;;4933100;28;20324;-69
2023/03/19 02:28:52;;;;;;;16.25;6.03;;;;;;;;;;4935092;28;20507;-69
2023/03/19 02:31:20;;;;;;;20.00;6.80;;;;;;;;;;4931612;28;20035;-69
2023/03/19 02:34:00;;;;;;;19.35;6.43;;;;;;;;;;4929902;28;20027;-68
2023/03/19 02:36:32;;;;;;;17.63;6.35;;;;;;;;;;4907385;28;20038;-69
2023/03/19 02:39:02;;;;;;;19.45;6.05;;;;;;;;;;4931791;28;20037;-69
2023/03/19 02:41:31;;;;;;;16.50;6.38;;;;;;;;;;4930558;28;20102;-69
2023/03/19 02:43:58;;;;;;;19.15;6.40;;;;;;;;;;4930872;28;20027;-69
2023/03/19 02:46:25;;;;;;;15.98;6.00;;;;;;;;;;4929273;28;20156;-69
2023/03/19 02:48:53;;;;;;;17.45;6.40;;;;;;;;;;4930590;28;20061;-69
2023/03/19 02:51:20;;;;;;;16.10;6.25;;;;;;;;;;4932385;28;20470;-69
2023/03/19 02:53:47;;;;;;;18.10;6.20;;;;;;;;;;4930916;28;20027;-68
2023/03/19 02:56:14;;;;;;;17.13;6.10;;;;;;;;;;4928506;28;20344;-69
2023/03/19 02:58:42;;;;;;;16.92;6.10;;;;;;;;;;4929120;28;20150;-69
2023/03/19 03:01:10;;;;;;;21.20;6.35;;;;;;;;;;4935674;28;20692;-69
2023/03/19 03:03:38;;;;;;;20.20;6.40;;;;;;;;;;4930515;28;20553;-69
2023/03/19 03:06:06;;;;;;;18.85;6.15;;;;;;;;;;4929785;28;20485;-69
2023/03/19 03:08:33;;;;;;;17.15;5.53;;;;;;;;;;4930550;28;20041;-69
2023/03/19 03:11:01;;;;;;;19.27;6.07;;;;;;;;;;4931088;28;20045;-69
2023/03/19 03:13:28;;;;;;;16.55;5.53;;;;;;;;;;4910188;28;20086;-69
2023/03/19 03:15:54;;;;;;;19.02;6.45;;;;;;;;;;4913635;28;20035;-69
2023/03/19 03:18:20;;;;;;;;;;;;;;;;;;4936845;28;20438;-69
2023/03/19 03:20:48;;;;;;;18.50;5.93;;;;;;;;;;4911945;28;19944;-69
2023/03/19 03:23:15;;;;;;;17.20;5.90;;;;;;;;;;4936396;28;20469;-69
2023/03/19 03:25:43;;;;;;;18.35;5.90;;;;;;;;;;4930922;28;21162;-69
2023/03/19 03:28:12;;;;;;;17.67;6.20;;;;;;;;;;4919585;28;20038;-68
2023/03/19 03:30:39;;;;;;;18.58;5.88;;;;;;;;;;4931239;28;20541;-69
2023/03/19 03:33:07;;;;;;;15.57;5.80;;;;;;;;;;4917191;28;20039;-69
2023/03/19 03:35:35;;;;;;;19.38;5.85;;;;;;;;;;4934050;28;20035;-69
2023/03/19 03:38:03;;;;;;;20.08;5.63;;;;;;;;;;4934612;28;20033;-68
2023/03/19 03:40:32;;;;;;;17.77;5.45;;;;;;;;;;4916508;28;20023;-69
2023/03/19 03:43:00;;;;;;;17.30;5.90;;;;;;;;;;4935751;28;20137;-69
2023/03/19 03:45:27;;;;;;;17.52;6.13;;;;;;;;;;4932283;28;20254;-69
2023/03/19 03:47:55;;;;;;;21.38;6.00;;;;;;;;;;4937692;28;20078;-69
2023/03/19 03:50:22;;;;;;;19.88;6.35;;;;;;;;;;4935402;28;20030;-69
2023/03/19 03:52:49;;;;;;;16.27;5.50;;;;;;;;;;4935307;28;20500;-69
2023/03/19 03:55:17;;;;;;;16.02;5.40;;;;;;;;;;4936320;28;20137;-69
2023/03/19 03:57:44;;;;;;;17.83;5.47;;;;;;;;;;4931802;28;20031;-69
2023/03/19 04:00:12;;;;;;;15.00;5.18;;;;;;;;;;4939849;28;20034;-69
2023/03/19 04:02:38;;;;;;;18.33;5.60;;;;;;;;;;4913280;28;20035;-69
2023/03/19 04:05:06;;;;;;;18.45;5.40;;;;;;;;;;4935943;28;20045;-69
2023/03/19 04:07:33;;;;;;;16.27;5.10;;;;;;;;;;4931447;28;20351;-69
2023/03/19 04:10:01;;;;;;;14.77;4.85;;;;;;;;;;4937931;28;20673;-69
2023/03/19 04:12:28;;;;;;;19.73;5.35;;;;;;;;;;4927886;28;20181;-69
2023/03/19 04:14:55;;;;;;;16.55;4.68;;;;;;;;;;4918484;28;20515;-69
2023/03/19 04:17:23;;;;;;;16.33;5.13;;;;;;;;;;4939080;28;20432;-69
2023/03/19 04:19:50;;;;;;;14.10;5.15;;;;;;;;;;4932670;28;20035;-68
2023/03/19 04:22:18;;;;;;;16.50;5.28;;;;;;;;;;4939676;28;20050;-68
2023/03/19 04:24:45;;;;;;;16.90;4.80;;;;;;;;;;4936492;28;20173;-68
2023/03/19 04:27:13;;;;;;;17.95;5.35;;;;;;;;;;4938415;28;20037;-68
2023/03/19 04:29:40;;;;;;;21.27;5.10;;;;;;;;;;4916062;28;20031;-68
2023/03/19 04:32:07;;;;;;;16.67;5.07;;;;;;;;;;4940216;28;20485;-68
2023/03/19 04:34:36;;;;;;;15.98;4.95;;;;;;;;;;4934508;28;20118;-69
2023/03/19 04:37:03;;;;;;;16.58;5.30;;;;;;;;;;4919837;28;20039;-68
2023/03/19 04:39:32;;;;;;;21.80;5.38;;;;;;;;;;4936202;28;20126;-68
2023/03/19 04:41:59;;;;;;;16.15;4.95;;;;;;;;;;4936515;28;20042;-68
2023/03/19 04:44:27;;;;;;;17.98;5.82;;;;;;;;;;4936127;28;20046;-68
2023/03/19 04:46:55;;;;;;;17.02;5.25;;;;;;;;;;4940221;28;20113;-68
2023/03/19 04:49:23;;;;;;;17.13;5.60;;;;;;;;;;4940083;28;20300;-68
2023/03/19 04:51:50;;;;;;;16.42;5.30;;;;;;;;;;4938731;28;20070;-68
2023/03/19 04:54:16;;;;;;;15.68;4.82;;;;;;;;;;4916863;28;20039;-68
2023/03/19 04:56:44;;;;;;;17.08;5.50;;;;;;;;;;4920487;28;20043;-68
2023/03/19 04:59:11;;;;;;;17.80;4.97;;;;;;;;;;4919342;28;20141;-68
2023/03/19 05:01:38;;;;;;;18.23;5.07;;;;;;;;;;4937656;28;20276;-68
2023/03/19 05:04:05;;;;;;;;;;;;;;;;;;4935204;28;20075;-68
2023/03/19 05:06:33;;;;;;;17.98;5.78;;;;;;;;;;4939133;28;19914;-68
2023/03/19 05:09:00;;;;;;;18.30;5.78;;;;;;;;;;4932414;28;20034;-67
2023/03/19 05:11:27;;;;;;;16.60;5.25;;;;;;;;;;4933275;28;20441;-67
2023/03/19 05:13:55;;;;;;;19.85;5.20;;;;;;;;;;4938214;28;20035;-68
2023/03/19 05:16:22;;;;;;;18.58;5.35;;;;;;;;;;4938337;28;20022;-68
2023/03/19 05:18:50;;;;;;;18.63;5.18;;;;;;;;;;4915479;28;20446;-68
2023/03/19 05:21:17;;;;;;;15.85;4.63;;;;;;;;;;4936469;28;20057;-68
2023/03/19 05:23:44;;;;;;;22.13;5.57;;;;;;;;;;4935722;28;20037;-68
2023/03/19 05:26:11;;;;;;;16.17;4.90;;;;;;;;;;4938643;28;20042;-67
2023/03/19 05:28:39;;;;;;;15.73;5.30;;;;;;;;;;4930455;28;20039;-68
2023/03/19 05:31:06;;;;;;;15.65;5.35;;;;;;;;;;4935204;28;20034;-68
2023/03/19 05:33:34;;;;;;;17.90;5.25;;;;;;;;;;4934847;28;21557;-68
2023/03/19 05:36:01;;;;;;;18.25;5.07;;;;;;;;;;4936280;28;20509;-67
2023/03/19 05:38:29;;;;;;;18.25;5.97;;;;;;;;;;4918938;28;20030;-68
2023/03/19 05:40:56;;;;;;;19.35;5.38;;;;;;;;;;4937356;28;20033;-67
2023/03/19 05:43:23;;;;;;;19.58;5.50;;;;;;;;;;4933310;28;20109;-68
2023/03/19 05:45:51;;;;;;;14.88;4.70;;;;;;;;;;4938000;28;20070;-68
2023/03/19 05:48:20;;;;;;;15.68;5.05;;;;;;;;;;4937237;28;20281;-68
2023/03/19 05:50:47;;;;;;;16.55;5.38;;;;;;;;;;4929174;28;20046;-68
2023/03/19 05:53:15;;;;;;;16.25;5.32;;;;;;;;;;4936532;28;20027;-68
2023/03/19 05:55:42;;;;;;;16.00;5.45;;;;;;;;;;4934921;28;20431;-67
2023/03/19 05:58:10;;;;;;;17.30;5.30;;;;;;;;;;4937166;28;20034;-68
2023/03/19 06:00:37;;;;;;;16.90;5.07;;;;;;;;;;4931253;28;20121;-67
2023/03/19 06:03:04;;;;;;;15.75;5.20;;;;;;;;;;4933099;28;20427;-69
2023/03/19 06:05:31;;;;;;;15.68;5.72;;;;;;;;;;4934713;28;20563;-67
2023/03/19 06:07:59;;;;;;;21.25;5.78;;;;;;;;;;4937935;28;20110;-67
2023/03/19 06:10:26;;;;;;;19.27;5.45;;;;;;;;;;4934028;28;20114;-69
2023/03/19 06:12:54;;;;;;;20.05;6.20;;;;;;;;;;4935650;28;20038;-69
2023/03/19 06:15:21;;;;;;;19.17;5.78;;;;;;;;;;4917631;28;20436;-69
2023/03/19 06:17:49;;;;;;;20.88;5.68;;;;;;;;;;4935486;28;20034;-68
2023/03/19 06:20:16;;;;;;;16.10;5.28;;;;;;;;;;4934149;28;20382;-69
2023/03/19 06:22:44;;;;;;;18.83;5.45;;;;;;;;;;4930163;28;20170;-69
2023/03/19 06:25:11;;;;;;;17.50;5.30;;;;;;;;;;4937487;28;20034;-68
2023/03/19 06:27:39;;;;;;;18.05;5.65;;;;;;;;;;4934280;28;20047;-68
2023/03/19 06:30:06;;;;;;;19.50;6.32;;;;;;;;;;4937061;28;20066;-68
2023/03/19 06:32:34;;;;;;;15.23;5.35;;;;;;;;;;4913895;28;20496;-69
2023/03/19 06:35:01;;;;;;;15.98;5.53;;;;;;;;;;4935157;28;20027;-67
2023/03/19 06:37:29;;;;;;;18.88;6.25;;;;;;;;;;4934221;28;20031;-69
2023/03/19 06:39:56;;;;;;;16.98;5.70;;;;;;;;;;4918389;28;20381;-69
2023/03/19 06:42:24;;;;;;;17.52;5.25;;;;;;;;;;4934790;28;20034;-68
2023/03/19 06:44:51;;;;;;;18.58;6.05;;;;;;;;;;4933273;28;20520;-69
2023/03/19 06:47:19;;;;;;;16.20;5.60;;;;;;;;;;4935317;28;20031;-69
2023/03/19 06:49:47;;;;;;;17.73;5.65;;;;;;;;;;4932308;28;20318;-68
2023/03/19 06:52:14;;;;;;;15.75;5.72;;;;;;;;;;4935701;28;20034;-68
2023/03/19 06:54:41;;;;;;;16.05;5.70;;;;;;;;;;4933074;28;20081;-68
2023/03/19 06:57:09;;;;;;;17.58;6.07;;;;;;;;;;4931969;28;20031;-68
2023/03/19 06:59:36;;;;;;;15.68;5.22;;;;;;;;;;4916151;28;20078;-68
2023/03/19 07:02:04;;;;;;;15.68;5.65;;;;;;;;;;4937831;28;20031;-68
2023/03/19 07:04:31;;;;;;;14.52;5.22;;;;;;;;;;4937130;28;20042;-68
2023/03/19 07:06:58;;;;;;;16.30;5.70;;;;;;;;;;4938351;28;20027;-69
2023/03/19 07:09:26;;;;;;;16.25;5.28;;;;;;;;;;4920171;28;20416;-69
2023/03/19 07:11:53;;;;;;;17.20;5.25;;;;;;;;;;4943499;28;20034;-69
2023/03/19 07:14:21;;;;;;;17.15;5.47;;;;;;;;;;4922553;28;20039;-69
2023/03/19 07:16:49;;;;;;;15.93;4.68;;;;;;;;;;4919970;28;20030;-69
2023/03/19 07:19:16;;;;;;;18.63;5.63;;;;;;;;;;4920228;28;20381;-68
2023/03/19 07:21:43;;;;;;;13.73;4.47;;;;;;;;;;4936242;28;20953;-67
2023/03/19 07:24:11;;;;;;;16.40;5.10;;;;;;;;;;4938263;28;20500;-67
2023/03/19 07:26:38;;;;;;;17.35;7.07;;;;;;;;;;4917525;28;20743;-67
2023/03/19 07:29:06;;;;;;;20.33;6.47;;;;;;;;;;4937963;28;20034;-68
2023/03/19 07:31:33;;;;;;;14.85;5.15;;;;;;;;;;4938091;28;20061;-68
2023/03/19 07:33:59;;;;;;;14.05;4.80;;;;;;;;;;4937008;28;20027;-68
2023/03/19 07:36:27;;;;;;;17.13;5.43;;;;;;;;;;4936213;28;20491;-68
2023/03/19 07:38:54;;;;;;;15.30;5.00;;;;;;;;;;4939045;28;20027;-69
2023/03/19 07:41:22;;;;;;;15.38;5.32;;;;;;;;;;4936551;28;20113;-69
2023/03/19 07:43:50;;;;;;;15.75;6.03;;;;;;;;;;4943136;28;20038;-69
2023/03/19 07:46:17;;;;;;;15.68;5.35;;;;;;;;;;4920444;28;20038;-69
2023/03/19 07:48:45;;;;;;;16.10;5.38;;;;;;;;;;4933442;28;20045;-69
2023/03/19 07:51:12;;;;;;;15.30;5.72;;;;;;;;;;4924587;28;20034;-69
2023/03/19 07:53:40;;;;;;;19.08;5.75;;;;;;;;;;4915157;28;20132;-69
2023/03/19 07:56:07;;;;;;;15.27;5.50;;;;;;;;;;4932509;28;20026;-69
2023/03/19 07:58:35;;;;;;;17.02;5.55;;;;;;;;;;4935890;28;20046;-69
2023/03/19 08:01:03;;;;;;;16.45;5.40;;;;;;;;;;4923121;28;20303;-69
2023/03/19 08:03:30;;;;;;;16.73;4.88;;;;;;;;;;4935697;28;20019;-69
2023/03/19 08:05:58;;;;;;;17.15;5.68;;;;;;;;;;4942767;28;20046;-69
2023/03/19 08:08:25;;;;;;;12.95;5.10;;;;;;;;;;4936363;28;20452;-69
2023/03/19 08:10:53;;;;;;;18.20;5.35;;;;;;;;;;4939879;28;20727;-69
2023/03/19 08:13:22;;;;;;;15.52;5.45;;;;;;;;;;4940262;28;20393;-69
2023/03/19 08:15:50;;;;;;;14.43;4.43;;;;;;;;;;4921403;28;20419;-69
2023/03/19 08:18:19;;;;;;;13.60;4.75;;;;;;;;;;4937867;28;20466;-69
2023/03/19 08:20:46;;;;;;;18.00;3.95;;;;;;;;;;4934938;28;20051;-69
2023/03/19 08:23:14;;;;;;;15.20;3.70;;;;;;;;;;4918402;28;20029;-69
2023/03/19 08:25:42;;;;;;;12.35;4.18;;;;;;;;;;4935184;28;20464;-69
2023/03/19 08:28:09;;;;;;;14.25;3.95;;;;;;;;;;4936921;28;20241;-70
2023/03/19 08:30:37;;;;;;;17.17;4.22;;;;;;;;;;4937092;28;20113;-70
2023/03/19 08:33:03;;;;;;;14.05;4.18;;;;;;;;;;4937258;28;20026;-68
2023/03/19 08:35:30;;;;;;;14.35;4.03;;;;;;;;;;4931991;28;20031;-68
2023/03/19 08:37:58;;;;;;;12.82;3.75;;;;;;;;;;4940524;28;20102;-68
2023/03/19 08:40:25;;;;;;;15.02;3.90;;;;;;;;;;4935002;28;20061;-69
2023/03/19 08:42:53;;;;;;;13.65;3.83;;;;;;;;;;4936758;28;20066;-68
2023/03/19 08:45:20;;;;;;;12.40;3.63;;;;;;;;;;4937306;28;20050;-69
2023/03/19 08:47:49;;;;;;;13.93;3.63;;;;;;;;;;4939625;28;20031;-69
2023/03/19 08:50:16;;;;;;;11.43;3.28;;;;;;;;;;4922220;28;20080;-68
2023/03/19 08:52:43;;;;;;;12.10;3.38;;;;;;;;;;4933245;28;21097;-69
2023/03/19 08:55:12;;;;;;;14.07;3.40;;;;;;;;;;4936154;28;20458;-69
2023/03/19 08:57:40;;;;;;;14.02;3.67;;;;;;;;;;4934499;28;20590;-69
2023/03/19 09:00:11;;;;;;;15.18;5.07;;;;;;;;;;4938810;28;20023;-69
2023/03/19 09:02:39;;;;;;;13.82;5.63;;;;;;;;;;4936736;28;20228;-69
2023/03/19 09:05:06;;;;;;;15.30;5.00;;;;;;;;;;4940560;28;20054;-69
2023/03/19 09:07:33;;;;;;;15.98;4.32;;;;;;;;;;4918174;28;20544;-70
2023/03/19 09:10:00;;;;;;;12.32;3.75;;;;;;;;;;4939624;28;20497;-69
2023/03/19 09:12:27;;;;;;;18.15;4.93;;;;;;;;;;4936539;28;20041;-68
2023/03/19 09:14:54;;;;;;;18.90;5.10;;;;;;;;;;4936392;28;20090;-70
2023/03/19 09:17:22;;;;;;;16.85;5.53;;;;;;;;;;4938816;28;20043;-70
2023/03/19 09:19:48;;;;;;;17.05;4.88;;;;;;;;;;4934876;28;20362;-69
2023/03/19 09:22:15;;;;;;;17.25;5.22;;;;;;;;;;4922580;28;20102;-69
2023/03/19 09:24:43;;;;;;;12.90;4.28;;;;;;;;;;4933422;28;20289;-69
2023/03/19 09:27:09;;;;;;;15.43;4.57;;;;;;;;;;4920881;28;20039;-68
2023/03/19 09:29:36;;;;;;;14.38;4.50;;;;;;;;;;4932925;28;20559;-68
2023/03/19 09:32:04;;;;;;;12.57;4.47;;;;;;;;;;4937924;28;20560;-68
2023/03/19 09:34:32;;;;;;;18.65;7.63;;;;;;;;;;4933588;28;20019;-68
2023/03/19 09:37:00;;;;;;;17.30;4.20;;;;;;;;;;4936440;28;20658;-68
2023/03/19 09:39:27;;;;;;;14.45;4.82;;;;;;;;;;4931603;28;20065;-69
2023/03/19 09:42:13;;;;;;;15.55;5.18;;;;;;;;;;4941372;28;20035;-68
2023/03/19 09:44:44;;;;;;;14.52;4.78;;;;;;;;;;4934675;28;20042;-68
2023/03/19 09:47:30;;;;;;;12.63;4.13;;;;;;;;;;4922312;28;20279;-68
2023/03/19 09:50:03;;;;;;;14.47;4.23;;;;;;;;;;4937222;28;20030;-68
2023/03/19 09:52:45;;;;;;;17.15;6.05;;;;;;;;;;4931484;28;20734;-69
2023/03/19 09:55:27;;;;;;;19.90;6.47;;;;;;;;;;4936319;28;20041;-68
2023/03/19 09:57:57;;;;;;;13.20;4.65;;;;;;;;;;4937488;28;20033;-69
2023/03/19 10:00:33;;;;;;;14.57;5.07;;;;;;;;;;4931222;28;20059;-69
2023/03/19 10:03:20;;;;;;;14.75;5.07;;;;;;;;;;4933875;28;20088;-70
2023/03/19 10:06:01;;;;;;;14.85;4.55;;;;;;;;;;4935149;28;20477;-69
2023/03/19 10:08:46;;;;;;;12.05;4.07;;;;;;;;;;4933864;28;20027;-68
2023/03/19 10:11:31;;;;;;;12.43;4.15;;;;;;;;;;4940359;28;20473;-70
2023/03/19 10:14:06;;;;;;;15.95;4.75;;;;;;;;;;4939800;28;20113;-70
2023/03/19 10:16:34;;;;;;;14.27;4.07;;;;;;;;;;4935400;28;20109;-69
2023/03/19 10:19:03;;;;;;;12.35;3.88;;;;;;;;;;4937489;28;20122;-68
2023/03/19 10:21:43;;;;;;;13.63;3.67;;;;;;;;;;4933855;28;20501;-68
2023/03/19 10:24:21;;;;;;;17.25;4.55;;;;;;;;;;4939786;28;20519;-70
2023/03/19 10:26:49;;;;;;;14.73;4.18;;;;;;;;;;4921179;28;20722;-70
2023/03/19 10:29:22;;;;;;;15.10;3.97;;;;;;;;;;4939702;28;20516;-69
2023/03/19 10:32:08;;;;;;;12.93;3.85;;;;;;;;;;4922293;28;20397;-69
2023/03/19 10:34:40;;;;;;;13.45;3.90;;;;;;;;;;4934781;28;20130;-70
2023/03/19 10:37:19;;;;;;;16.23;3.90;;;;;;;;;;4940378;28;20115;-70
2023/03/19 10:39:47;;;;;;;11.75;3.80;;;;;;;;;;4938584;28;20058;-71
2023/03/19 10:42:29;;;;;;;11.52;3.47;;;;;;;;;;4938679;28;20555;-69
2023/03/19 10:45:23;;;;;;;11.73;2.95;;;;;;;;;;4935320;28;20050;-72
2023/03/19 10:47:54;;;;;;;16.85;4.13;;;;;;;;;;4930214;28;20457;-70
2023/03/19 10:50:27;;;;;;;14.35;4.70;;;;;;;;;;4914367;28;20896;-70
2023/03/19 10:53:07;;;;;;;15.45;4.05;;;;;;;;;;4937205;28;20235;-70
2023/03/19 10:55:35;;;;;;;15.32;3.95;;;;;;;;;;4928379;28;20501;-70
2023/03/19 10:58:05;;;;;;;15.45;3.90;;;;;;;;;;4937191;28;20116;-70
2023/03/19 11:00:34;;;;;;;15.80;3.78;;;;;;;;;;4933851;28;20035;-70
2023/03/19 11:03:04;;;;;;;13.45;3.83;;;;;;;;;;4938510;28;20338;-69
2023/03/19 11:05:32;;;;;;;13.30;3.92;;;;;;;;;;4938966;28;20445;-70
2023/03/19 11:08:07;;;;;;;11.73;3.47;;;;;;;;;;4941758;28;20038;-70
2023/03/19 11:10:35;;;;;;;16.20;4.57;;;;;;;;;;4915555;28;20103;-70
2023/03/19 11:13:23;;;;;;;14.27;4.13;;;;;;;;;;4941527;28;20066;-70
2023/03/19 11:15:51;;;;;;;14.93;3.85;;;;;;;;;;4938257;28;20064;-69
2023/03/19 11:18:22;;;;;;;16.77;4.68;;;;;;;;;;4940158;28;20248;-70
2023/03/19 11:20:53;;;;;;;19.08;4.72;;;;;;;;;;4936123;28;20485;-70
2023/03/19 11:23:20;;;;;;;15.00;5.50;;;;;;;;;;4923082;28;20046;-70
2023/03/19 11:25:53;;;;;;;12.82;5.03;;;;;;;;;;4934649;28;20564;-68
2023/03/19 11:28:25;;;;;;;19.23;7.13;;;;;;;;;;4937510;28;20450;-68
2023/03/19 11:31:11;;;;;;;20.85;10.55;;;;;;;;;;4920182;28;20848;-68
2023/03/19 11:34:03;;;;;;;17.95;8.43;;;;;;;;;;4937674;28;20042;-68
2023/03/19 11:36:48;;;;;;;15.00;5.78;;;;;;;;;;4844580;29;20522;-68
2023/03/19 11:39:32;;;;;;;15.50;4.78;;;;;;;;;;4850591;29;20158;-66
2023/03/19 11:42:26;;;;;;;13.30;3.78;;;;;;;;;;4829474;29;20415;-67
2023/03/19 11:45:10;;;;;;;12.75;4.20;;;;;;;;;;4854508;29;20060;-66
2023/03/19 11:47:49;;;;;;;11.25;4.40;;;;;;;;;;4850475;29;20127;-72
2023/03/19 11:50:24;;;;;;;16.17;4.90;;;;;;;;;;4851051;29;20048;-71
2023/03/19 11:53:00;;;;;;;13.07;5.00;;;;;;;;;;4834495;29;20044;-70
2023/03/19 11:55:35;;;;;;;13.25;4.65;;;;;;;;;;4849760;29;20107;-72
2023/03/19 11:58:17;;;;;;;15.23;5.20;;;;;;;;;;4851053;29;20640;-71
2023/03/19 12:00:47;;;;;;;12.88;5.63;;;;;;;;;;4850414;29;20418;-71
2023/03/19 12:03:32;;;;;;;17.58;5.95;;;;;;;;;;4853457;29;20028;-71
2023/03/19 12:06:19;;;;;;;15.90;5.80;;;;;;;;;;4854447;29;20067;-71
2023/03/19 12:08:54;;;;;;;19.63;9.55;;;;;;;;;;4842579;29;20064;-71
2023/03/19 12:11:40;;;;;;;17.00;5.22;;;;;;;;;;4853875;29;20654;-71
2023/03/19 12:14:18;;;;;;;18.70;7.65;;;;;;;;;;4916204;28;20043;-71
2023/03/19 12:16:47;;;;;;;18.17;7.50;;;;;;;;;;4936266;28;20031;-71
2023/03/19 12:19:32;;;;;;;21.58;7.65;;;;;;;;;;4921557;28;20436;-71
2023/03/19 12:22:02;;;;;;;15.15;6.22;;;;;;;;;;4940552;28;20043;-70
2023/03/19 12:24:40;;;;;;;16.38;6.30;;;;;;;;;;4938734;28;20039;-71
2023/03/19 12:27:43;;;;;;;16.98;7.07;;;;;;;;;;4936434;28;20479;-70
2023/03/19 12:30:29;;;;;;;14.10;5.65;;;;;;;;;;4865391;29;20051;-71
2023/03/19 12:33:11;;;;;;;12.60;4.88;;;;;;;;;;4864562;29;20040;-71
2023/03/19 12:35:39;;;;;;;12.98;5.00;;;;;;;;;;4863269;29;20054;-73
2023/03/19 12:38:24;;;;;;;10.60;3.97;;;;;;;;;;4864438;29;20032;-72
2023/03/19 12:41:01;;;;;;;10.82;3.33;;;;;;;;;;4865528;29;20040;-70
2023/03/19 12:43:48;;;;;;;8.65;2.80;;;;;;;;;;4846714;29;20032;-71
2023/03/19 12:46:24;;;;;;;11.68;3.17;;;;;;;;;;4846536;29;20773;-71
2023/03/19 12:48:58;;;;;;;9.63;3.13;;;;;;;;;;4848031;29;20032;-71
2023/03/19 12:51:32;;;;;;;11.18;3.25;;;;;;;;;;4841993;29;20549;-71
2023/03/19 12:54:02;;;;;;;7.63;2.15;;;;;;;;;;4831429;29;20468;-70
2023/03/19 12:56:47;;;;;;;10.18;3.05;;;;;;;;;;4846629;29;20037;-70
2023/03/19 12:59:17;;;;;;;12.03;4.00;;;;;;;;;;4846492;29;20064;-71
2023/03/19 13:01:46;;;;;;;11.57;3.50;;;;;;;;;;4844001;29;20960;-71
2023/03/19 13:04:29;;;;;;;9.38;2.83;;;;;;;;;;4885194;28;20085;-71
2023/03/19 13:07:02;;;;;;;11.32;2.95;;;;;;;;;;4922527;28;20078;-70
2023/03/19 13:09:28;;;;;;;9.73;3.80;;;;;;;;;;4902844;28;20035;-71
2023/03/19 13:12:10;;;;;;;8.82;3.65;;;;;;;;;;4924920;28;20035;-69
2023/03/19 13:14:48;;;;;;;9.38;3.38;;;;;;;;;;4919898;28;20522;-71
2023/03/19 13:17:21;;;;;;;9.57;3.40;;;;;;;;;;4921126;28;20737;-70
2023/03/19 13:19:52;;;;;;;9.40;3.00;;;;;;;;;;4920142;28;20446;-69
2023/03/19 13:22:21;;;;;;;12.85;6.25;;;;;;;;;;4924941;28;20082;-69
2023/03/19 13:24:49;;;;;;;11.73;5.13;;;;;;;;;;4918803;28;20485;-70
2023/03/19 13:27:25;;;;;;;12.70;4.90;;;;;;;;;;4921274;28;20442;-62
2023/03/19 13:30:13;;;;;;;12.05;3.85;;;;;;;;;;4905971;28;20117;-62
2023/03/19 13:32:59;;;;;;;8.70;3.38;;;;;;;;;;4911649;28;20051;-62
2023/03/19 13:35:45;;;;;;;8.95;3.28;;;;;;;;;;4917373;28;20024;-64
2023/03/19 13:38:14;;;;;;;8.70;2.70;;;;;;;;;;4922513;28;20027;-63
2023/03/19 13:40:54;;;;;;;8.88;2.55;;;;;;;;;;4919679;28;20742;-63
2023/03/19 13:43:32;;;;;;;9.23;2.40;;;;;;;;;;4926273;28;20035;-62
2023/03/19 13:46:11;;;;;;;7.00;2.17;;;;;;;;;;4933820;28;20051;-62
2023/03/19 13:48:49;;;;;;;9.38;1.98;;;;;;;;;;4932365;28;20054;-69
2023/03/19 13:51:18;;;;;;;8.30;2.38;;;;;;;;;;4922070;28;20902;-69
2023/03/19 13:54:03;;;;;;;8.38;2.72;;;;;;;;;;4937387;28;20399;-69
2023/03/19 13:56:32;;;;;;;7.32;2.17;;;;;;;;;;4936888;28;20065;-67
2023/03/19 13:59:32;;;;;;;8.75;2.75;;;;;;;;;;4937892;28;20549;-67
2023/03/19 14:02:00;;;;;;;8.18;2.13;;;;;;;;;;4924970;28;20157;-67
2023/03/19 14:04:32;;;;;;;8.65;1.70;;;;;;;;;;4934517;28;20103;-66
2023/03/19 14:07:18;;;;;;;7.25;1.80;;;;;;;;;;4934744;28;20788;-67
2023/03/19 14:09:49;;;;;;;10.48;3.20;;;;;;;;;;4934787;28;20045;-66
2023/03/19 14:12:21;;;;;;;10.73;3.53;;;;;;;;;;4939970;28;20046;-66
2023/03/19 14:14:50;;;;;;;10.75;3.22;;;;;;;;;;4935797;28;20457;-66
2023/03/19 14:17:23;;;;;;;11.90;2.50;;;;;;;;;;4938266;28;20094;-66
2023/03/19 14:19:51;;;;;;;9.30;2.53;;;;;;;;;;4940104;28;20040;-65
2023/03/19 14:22:36;;;;;;;9.48;3.15;;;;;;;;;;4926725;28;20417;-67
2023/03/19 14:25:11;;;;;;;8.93;2.60;;;;;;;;;;4940228;28;20346;-65
2023/03/19 14:27:43;;;;;;;10.20;3.35;;;;;;;;;;4931266;28;20300;-66
2023/03/19 14:30:16;;;;;;;9.13;3.47;;;;;;;;;;4936107;28;20033;-66
2023/03/19 14:32:46;;;;;;;9.30;3.72;;;;;;;;;;4936745;28;20042;-66
2023/03/19 14:35:19;;;;;;;11.55;5.03;;;;;;;;;;4920609;28;20105;-66
2023/03/19 14:37:51;;;;;;;10.63;5.65;;;;;;;;;;4932968;28;20192;-66
2023/03/19 14:40:32;;;;;;;9.15;3.78;;;;;;;;;;4939226;28;20122;-65
2023/03/19 14:43:13;;;;;;;8.23;2.88;;;;;;;;;;4939951;28;20598;-66
2023/03/19 14:45:49;;;;;;;9.77;3.40;;;;;;;;;;4930603;28;21243;-65
2023/03/19 14:48:36;;;;;;;9.60;3.17;;;;;;;;;;4934990;28;20584;-66
2023/03/19 14:51:20;;;;;;;8.05;2.78;;;;;;;;;;4939640;28;20468;-66
2023/03/19 14:54:09;;;;;;;10.37;3.53;;;;;;;;;;4935459;28;20131;-67